Time;durP1;ratioP1;P1;durP2;ratioP2;P2;SDS_P1;SDS_P2;PMS_P1;PMS_P2;Temp;Humidity;BMP_temperature;BMP_pressure;BME280_temperature;BME280_humidity;BME280_pressure;Samples;Min_cycle;Max_cycle;Signal;HPM_P1;HPM_P2
2021/05/10 00:01:48;;;;;;;1.83;1.70;;;17.70;99.90;;;;;;5007700;28;20928;-68
2021/05/10 00:04:15;;;;;;;2.20;1.60;;;17.70;99.90;;;;;;5008130;28;20449;-69
2021/05/10 00:06:42;;;;;;;2.33;2.13;;;17.70;99.90;;;;;;5008245;28;20465;-66
2021/05/10 00:09:10;;;;;;;1.87;1.77;;;17.70;99.90;;;;;;5007881;28;20512;-69
2021/05/10 00:11:37;;;;;;;2.47;1.53;;;17.70;99.90;;;;;;5007938;28;20429;-68
2021/05/10 00:14:06;;;;;;;1.50;1.40;;;17.50;99.90;;;;;;5007804;28;20444;-68
2021/05/10 00:16:33;;;;;;;2.37;2.17;;;17.40;99.90;;;;;;5007985;28;20467;-68
2021/05/10 00:19:01;;;;;;;2.00;1.80;;;17.40;99.90;;;;;;5007058;28;20908;-67
2021/05/10 00:21:29;;;;;;;2.87;1.90;;;17.40;99.90;;;;;;5007833;28;20997;-68
2021/05/10 00:23:56;;;;;;;3.20;1.87;;;17.40;99.90;;;;;;5007378;28;20400;-68
2021/05/10 00:26:23;;;;;;;1.97;1.30;;;17.40;99.90;;;;;;5007479;28;20535;-68
2021/05/10 00:28:50;;;;;;;2.40;2.20;;;17.30;99.90;;;;;;5007911;28;20448;-69
2021/05/10 00:31:19;;;;;;;2.53;2.00;;;17.30;99.90;;;;;;5007501;28;20433;-68
2021/05/10 00:33:46;;;;;;;2.07;1.50;;;17.30;99.90;;;;;;5007096;28;20419;-69
2021/05/10 00:36:13;;;;;;;2.10;1.90;;;17.20;99.90;;;;;;5007603;28;20486;-68
2021/05/10 00:38:40;;;;;;;2.70;2.10;;;17.10;99.90;;;;;;5007520;28;20413;-67
2021/05/10 00:41:07;;;;;;;2.20;2.00;;;17.20;99.90;;;;;;5007184;28;20434;-69
2021/05/10 00:43:34;;;;;;;2.77;1.60;;;17.20;99.90;;;;;;5007270;28;20423;-69
2021/05/10 00:46:01;;;;;;;1.80;1.67;;;17.10;99.90;;;;;;5007148;28;20440;-71
2021/05/10 00:48:29;;;;;;;1.90;1.60;;;17.10;99.90;;;;;;5007484;28;20400;-69
2021/05/10 00:50:57;;;;;;;2.30;1.63;;;17.00;99.90;;;;;;5007094;28;20929;-70
2021/05/10 00:53:24;;;;;;;2.37;1.87;;;17.00;99.90;;;;;;5007308;28;20962;-69
2021/05/10 00:55:52;;;;;;;1.37;1.27;;;16.90;99.90;;;;;;5007214;28;20507;-68
2021/05/10 00:58:19;;;;;;;2.30;2.10;;;16.90;99.90;;;;;;5006982;28;20516;-68
2021/05/10 01:00:46;;;;;;;3.10;1.60;;;16.80;99.90;;;;;;4991919;23;20609;-73
2021/05/10 01:03:13;;;;;;;2.13;1.90;;;16.80;99.90;;;;;;4952683;28;20465;-73
2021/05/10 01:05:43;;;;;;;2.90;2.50;;;16.90;99.90;;;;;;4949691;28;20464;-73
2021/05/10 01:08:10;;;;;;;6.83;1.70;;;16.90;99.90;;;;;;4949047;28;20402;-72
2021/05/10 01:10:37;;;;;;;1.97;1.60;;;16.90;99.90;;;;;;4947752;29;20440;-71
2021/05/10 01:13:05;;;;;;;2.43;1.90;;;16.80;99.90;;;;;;4948777;28;20439;-71
2021/05/10 01:15:32;;;;;;;2.80;1.40;;;16.80;99.90;;;;;;4948798;28;20443;-72
2021/05/10 01:17:59;;;;;;;2.10;1.53;;;16.70;99.90;;;;;;4948745;28;20740;-72
2021/05/10 01:20:28;;;;;;;2.07;1.87;;;16.80;99.90;;;;;;4948880;28;20424;-73
2021/05/10 01:22:57;;;;;;;4.00;3.23;;;16.70;99.90;;;;;;4949321;28;20429;-72
2021/05/10 01:25:27;;;;;;;1.90;1.70;;;16.60;99.90;;;;;;4947462;29;20468;-72
2021/05/10 01:27:55;;;;;;;2.63;2.17;;;16.60;99.90;;;;;;4947318;28;20447;-72
2021/05/10 01:30:27;;;;;;;2.10;1.90;;;16.60;99.90;;;;;;4950964;28;20496;-72
2021/05/10 01:32:56;;;;;;;2.60;2.00;;;16.60;99.90;;;;;;4951564;28;20410;-74
2021/05/10 01:35:25;;;;;;;2.00;1.80;;;16.50;99.90;;;;;;4950953;29;20744;-72
2021/05/10 01:37:53;;;;;;;2.80;1.70;;;16.60;99.90;;;;;;4952006;28;20452;-70
2021/05/10 01:40:22;;;;;;;2.30;1.80;;;16.60;99.90;;;;;;4951947;28;20850;-73
2021/05/10 01:42:49;;;;;;;2.13;1.93;;;16.60;99.90;;;;;;4951630;28;20544;-71
2021/05/10 01:45:16;;;;;;;2.00;1.70;;;16.60;99.90;;;;;;4951800;28;20399;-71
2021/05/10 01:47:44;;;;;;;1.87;1.77;;;16.50;99.90;;;;;;4950315;29;20784;-71
2021/05/10 01:50:14;;;;;;;2.13;1.93;;;16.50;99.90;;;;;;4951882;28;20427;-72
2021/05/10 01:52:41;;;;;;;1.80;1.70;;;16.50;99.90;;;;;;4951477;28;20461;-72
2021/05/10 01:55:10;;;;;;;3.37;1.77;;;16.40;99.90;;;;;;4951743;28;20444;-74
2021/05/10 01:57:39;;;;;;;2.03;1.83;;;16.20;99.90;;;;;;4952144;28;20441;-72
2021/05/10 02:00:10;;;;;;;2.23;1.80;;;16.30;99.90;;;;;;4952959;28;20444;-75
2021/05/10 02:02:37;;;;;;;2.90;1.93;;;16.30;99.90;;;;;;4952937;28;20418;-73
2021/05/10 02:05:11;;;;;;;2.73;1.97;;;16.30;99.90;;;;;;4953183;28;20410;-72
2021/05/10 02:07:40;;;;;;;2.20;1.87;;;16.30;99.90;;;;;;4952732;28;20412;-73
2021/05/10 02:10:09;;;;;;;2.10;1.70;;;16.30;99.90;;;;;;4952283;28;20395;-73
2021/05/10 02:12:36;;;;;;;1.93;1.80;;;16.30;99.90;;;;;;4950927;28;20423;-71
2021/05/10 02:15:07;;;;;;;1.53;1.40;;;16.20;99.90;;;;;;4951055;28;20449;-73
2021/05/10 02:17:35;;;;;;;1.90;1.73;;;16.10;99.90;;;;;;4950926;28;20399;-73
2021/05/10 02:20:04;;;;;;;2.30;1.70;;;16.10;99.90;;;;;;4951459;28;21148;-72
2021/05/10 02:22:31;;;;;;;4.40;2.57;;;16.10;99.90;;;;;;4949377;28;20430;-73
2021/05/10 02:24:58;;;;;;;1.67;1.57;;;16.00;99.90;;;;;;4951022;28;20432;-72
2021/05/10 02:27:25;;;;;;;2.10;1.43;;;16.00;99.90;;;;;;4950883;28;20521;-73
2021/05/10 02:29:52;;;;;;;2.13;1.50;;;16.00;99.90;;;;;;4951087;28;20749;-73
2021/05/10 02:32:21;;;;;;;2.00;1.80;;;15.90;99.90;;;;;;4950152;28;20434;-71
2021/05/10 02:34:48;;;;;;;2.10;1.87;;;15.90;99.90;;;;;;4951085;28;20497;-72
2021/05/10 02:37:18;;;;;;;4.23;1.70;;;16.00;99.90;;;;;;4950984;28;20421;-72
2021/05/10 02:39:45;;;;;;;2.47;1.77;;;16.00;99.90;;;;;;4950997;28;20424;-71
2021/05/10 02:42:12;;;;;;;1.60;1.20;;;15.80;99.90;;;;;;4948653;28;20457;-72
2021/05/10 02:44:40;;;;;;;1.43;1.33;;;15.70;99.90;;;;;;4951169;28;20402;-71
2021/05/10 02:47:07;;;;;;;2.63;1.33;;;15.60;99.90;;;;;;4950616;28;20519;-71
2021/05/10 02:49:36;;;;;;;2.80;2.07;;;15.50;99.90;;;;;;4950752;28;20398;-72
2021/05/10 02:52:04;;;;;;;1.63;1.40;;;15.50;99.90;;;;;;4950266;28;20428;-71
2021/05/10 02:54:31;;;;;;;2.83;1.40;;;15.50;99.90;;;;;;4950383;28;20402;-71
2021/05/10 02:56:58;;;;;;;1.90;1.53;;;15.50;99.90;;;;;;4950940;28;20398;-72
2021/05/10 02:59:25;;;;;;;3.83;2.03;;;15.50;99.90;;;;;;4950808;28;20409;-73
2021/05/10 03:01:52;;;;;;;5.30;2.10;;;15.40;99.90;;;;;;4949314;28;20449;-72
2021/05/10 03:04:20;;;;;;;2.47;1.53;;;15.40;99.90;;;;;;4950587;28;20420;-71
2021/05/10 03:06:48;;;;;;;2.13;1.93;;;15.40;99.90;;;;;;4950526;28;20475;-72
2021/05/10 03:09:15;;;;;;;3.53;1.70;;;15.30;99.90;;;;;;4950624;28;20481;-71
2021/05/10 03:11:42;;;;;;;2.30;1.80;;;15.30;99.90;;;;;;4950157;28;20940;-73
2021/05/10 03:14:10;;;;;;;2.60;1.80;;;15.20;99.90;;;;;;4949065;29;20883;-71
2021/05/10 03:16:37;;;;;;;2.33;1.70;;;15.10;99.90;;;;;;4950941;28;20753;-72
2021/05/10 03:19:09;;;;;;;1.70;1.57;;;15.10;99.90;;;;;;4950421;28;20411;-71
2021/05/10 03:21:36;;;;;;;3.20;2.40;;;15.20;99.90;;;;;;4950608;28;20989;-71
2021/05/10 03:24:06;;;;;;;2.70;1.97;;;15.20;99.90;;;;;;4949248;29;20976;-70
2021/05/10 03:26:34;;;;;;;1.60;1.30;;;15.10;99.90;;;;;;4949755;28;20486;-72
2021/05/10 03:29:02;;;;;;;3.30;2.20;;;15.00;99.90;;;;;;4952580;28;20417;-73
2021/05/10 03:31:30;;;;;;;2.60;1.80;;;15.00;99.90;;;;;;4951129;28;20426;-71
2021/05/10 03:33:58;;;;;;;1.60;1.50;;;15.00;99.90;;;;;;4952646;28;20424;-73
2021/05/10 03:36:25;;;;;;;2.07;1.50;;;15.10;99.90;;;;;;4952375;29;20439;-73
2021/05/10 03:38:52;;;;;;;2.03;1.57;;;15.20;99.90;;;;;;4950525;28;20395;-70
2021/05/10 03:41:22;;;;;;;2.00;1.80;;;15.30;99.90;;;;;;4950286;28;20395;-70
2021/05/10 03:43:49;;;;;;;2.13;1.93;;;15.40;99.90;;;;;;4950008;28;21006;-73
2021/05/10 03:46:17;;;;;;;2.47;2.20;;;15.70;99.90;;;;;;4949747;28;20472;-71
2021/05/10 03:48:44;;;;;;;2.50;1.63;;;16.40;99.90;;;;;;4949935;29;20389;-72
2021/05/10 03:51:12;;;;;;;1.70;1.60;;;17.00;99.90;;;;;;4949776;28;20424;-71
2021/05/10 03:53:42;;;;;;;1.47;1.37;;;17.60;99.90;;;;;;4949624;28;20893;-73
2021/05/10 03:56:10;;;;;;;2.10;1.40;;;18.50;99.90;;;;;;4949928;28;20513;-72
2021/05/10 03:58:38;;;;;;;2.80;1.80;;;19.40;99.90;;;;;;4948792;29;20861;-72
2021/05/10 04:01:06;;;;;;;2.40;1.87;;;20.00;99.90;;;;;;4948903;28;20411;-71
2021/05/10 04:03:39;;;;;;;3.03;1.57;;;20.70;99.90;;;;;;4951590;28;20445;-71
2021/05/10 04:06:28;;;;;;;1.80;1.17;;;21.10;99.90;;;;;;4952836;28;20519;-72
2021/05/10 04:14:28;;;;;;;3.70;1.90;;;22.80;99.90;;;;;;4949568;28;20432;-71
2021/05/10 04:16:55;;;;;;;4.20;1.73;;;23.90;99.90;;;;;;4949497;28;20425;-72
2021/05/10 04:19:23;;;;;;;2.10;1.90;;;24.70;99.90;;;;;;4949126;28;20807;-71
2021/05/10 04:21:50;;;;;;;2.03;1.73;;;25.60;99.90;;;;;;4947586;28;20434;-72
2021/05/10 04:24:17;;;;;;;2.63;1.73;;;26.20;99.90;;;;;;4948987;28;20468;-71
2021/05/10 04:26:44;;;;;;;1.83;1.60;;;26.00;99.90;;;;;;4949281;28;20481;-72
2021/05/10 04:29:11;;;;;;;4.97;1.63;;;26.40;99.90;;;;;;4949254;28;20427;-72
2021/05/10 04:31:39;;;;;;;2.93;1.70;;;26.10;99.90;;;;;;4947780;28;20534;-72
2021/05/10 04:34:07;;;;;;;1.60;1.50;;;25.50;99.90;;;;;;4949389;28;20451;-72
2021/05/10 04:36:34;;;;;;;1.73;1.60;;;25.10;99.90;;;;;;4948893;28;20434;-72
2021/05/10 04:39:01;;;;;;;1.93;1.37;;;25.60;99.90;;;;;;4948966;28;20488;-72
2021/05/10 04:41:28;;;;;;;1.73;1.23;;;26.70;99.90;;;;;;4947642;28;20431;-74
2021/05/10 04:43:56;;;;;;;2.00;1.80;;;27.80;99.90;;;;;;4949642;28;20440;-72
2021/05/10 04:46:23;;;;;;;1.80;1.47;;;28.30;99.90;;;;;;4949367;28;20468;-72
2021/05/10 04:48:51;;;;;;;1.60;1.23;;;28.40;99.90;;;;;;4949368;28;20518;-73
2021/05/10 04:51:18;;;;;;;4.70;1.80;;;27.20;99.90;;;;;;4948919;28;20442;-73
2021/05/10 04:53:45;;;;;;;4.03;2.07;;;27.40;99.90;;;;;;4949012;28;20443;-71
2021/05/10 04:56:12;;;;;;;2.10;1.63;;;28.50;99.90;;;;;;4949312;28;20527;-72
2021/05/10 04:58:39;;;;;;;2.03;1.83;;;29.30;99.90;;;;;;4949340;28;20419;-71
2021/05/10 05:01:06;;;;;;;1.87;1.60;;;29.50;99.90;;;;;;4947682;28;20501;-72
2021/05/10 05:03:37;;;;;;;2.87;1.90;;;29.70;99.90;;;;;;4949297;28;20448;-73
2021/05/10 05:06:06;;;;;;;1.30;1.20;;;29.40;99.90;;;;;;4951290;29;20486;-71
2021/05/10 05:08:33;;;;;;;2.93;1.90;;;29.60;99.90;;;;;;4951510;29;20480;-72
2021/05/10 05:11:01;;;;;;;2.60;1.77;;;30.00;99.90;;;;;;4953343;28;20750;-72
2021/05/10 05:13:30;;;;;;;2.10;1.80;;;30.10;99.90;;;;;;4952340;28;20450;-72
2021/05/10 05:15:57;;;;;;;2.50;1.80;;;30.20;99.90;;;;;;4951045;28;20904;-72
2021/05/10 05:18:25;;;;;;;1.80;1.43;;;29.70;99.90;;;;;;4952207;28;20781;-72
2021/05/10 05:20:52;;;;;;;2.03;1.27;;;28.40;99.90;;;;;;4952198;28;20426;-72
2021/05/10 05:23:22;;;;;;;1.73;1.60;;;27.60;99.90;;;;;;4952340;28;20445;-72
2021/05/10 05:25:54;;;;;;;2.30;1.63;;;26.20;99.90;;;;;;4952432;28;20485;-72
2021/05/10 05:28:22;;;;;;;2.00;1.60;;;24.00;99.90;;;;;;4950568;29;20410;-71
2021/05/10 05:30:49;;;;;;;2.33;1.77;;;22.00;99.90;;;;;;4951034;29;20445;-73
2021/05/10 05:33:17;;;;;;;1.90;1.67;;;20.70;99.90;;;;;;4951930;28;20530;-72
2021/05/10 05:35:44;;;;;;;1.80;1.20;;;19.60;99.90;;;;;;4951912;28;20430;-72
2021/05/10 05:38:12;;;;;;;3.00;1.87;;;19.10;99.90;;;;;;4952025;28;20424;-71
2021/05/10 05:40:41;;;;;;;2.73;1.60;;;18.80;99.90;;;;;;4950405;29;20450;-69
2021/05/10 05:43:10;;;;;;;3.43;1.70;;;18.60;99.90;;;;;;4951218;28;20440;-71
2021/05/10 05:45:38;;;;;;;2.20;1.77;;;18.40;99.90;;;;;;4951553;28;20957;-72
2021/05/10 05:48:07;;;;;;;2.30;2.00;;;18.40;99.90;;;;;;4951071;28;20970;-71
2021/05/10 05:50:35;;;;;;;2.60;2.30;;;18.40;99.90;;;;;;4953561;28;20798;-72
2021/05/10 05:53:03;;;;;;;1.63;1.53;;;18.50;99.90;;;;;;4951378;28;20447;-73
2021/05/10 05:55:31;;;;;;;1.90;1.70;;;18.50;99.90;;;;;;4951329;28;20813;-72
2021/05/10 05:58:01;;;;;;;3.33;1.23;;;18.60;99.90;;;;;;4950724;29;20399;-71
2021/05/10 06:00:28;;;;;;;1.83;1.33;;;18.50;99.90;;;;;;4950698;28;21030;-72
2021/05/10 06:02:56;;;;;;;3.80;2.20;;;18.70;99.90;;;;;;4950559;28;20509;-73
2021/05/10 06:05:23;;;;;;;2.20;1.50;;;18.80;99.90;;;;;;4950744;29;21083;-73
2021/05/10 06:07:51;;;;;;;2.70;1.40;;;18.80;99.90;;;;;;4952028;28;20482;-71
2021/05/10 06:10:21;;;;;;;3.80;1.70;;;18.70;99.90;;;;;;4969801;28;20496;-71
2021/05/10 06:12:50;;;;;;;3.63;1.53;;;18.80;99.90;;;;;;4969398;28;20462;-71
2021/05/10 06:15:20;;;;;;;2.17;1.40;;;18.90;99.90;;;;;;4969293;28;20451;-72
2021/05/10 06:17:47;;;;;;;3.07;1.80;;;19.00;99.90;;;;;;4968899;28;20436;-72
2021/05/10 06:20:16;;;;;;;2.23;1.60;;;19.10;99.90;;;;;;4953986;28;20422;-72
2021/05/10 06:22:44;;;;;;;4.60;1.40;;;19.10;99.90;;;;;;4952814;28;20460;-73
2021/05/10 06:25:12;;;;;;;2.83;1.90;;;19.10;99.90;;;;;;4951929;29;20422;-72
2021/05/10 06:27:40;;;;;;;1.80;1.53;;;19.20;99.90;;;;;;4952445;29;20502;-72
2021/05/10 06:30:10;;;;;;;1.50;1.40;;;19.20;99.90;;;;;;4953670;28;20434;-73
2021/05/10 06:32:38;;;;;;;2.73;1.70;;;19.30;99.90;;;;;;4969814;28;20430;-72
2021/05/10 06:35:07;;;;;;;1.60;1.33;;;19.40;99.90;;;;;;4969365;28;20412;-71
2021/05/10 06:37:35;;;;;;;1.63;1.30;;;19.40;99.90;;;;;;4969426;28;20786;-73
2021/05/10 06:40:03;;;;;;;3.20;1.43;;;19.50;99.90;;;;;;4969239;28;20947;-73
2021/05/10 06:42:30;;;;;;;5.10;1.63;;;19.50;99.90;;;;;;4969195;28;20426;-72
2021/05/10 06:44:59;;;;;;;3.83;1.90;;;19.60;99.90;;;;;;4969256;28;20429;-72
2021/05/10 06:47:26;;;;;;;1.97;1.40;;;19.70;99.90;;;;;;4969543;28;20536;-72
2021/05/10 06:49:54;;;;;;;1.60;1.30;;;19.70;99.90;;;;;;4969422;28;20407;-72
2021/05/10 06:52:22;;;;;;;2.00;1.80;;;19.70;99.90;;;;;;4968872;28;20947;-74
2021/05/10 06:54:50;;;;;;;2.40;1.43;;;19.70;99.90;;;;;;4969157;28;20513;-72
2021/05/10 06:57:17;;;;;;;2.40;1.83;;;19.80;99.90;;;;;;4961271;28;20510;-71
2021/05/10 06:59:45;;;;;;;2.73;1.40;;;20.00;99.90;;;;;;4965943;22;20446;-69
2021/05/10 07:02:12;;;;;;;2.40;1.73;;;20.00;99.90;;;;;;4994568;28;20423;-70
2021/05/10 07:04:40;;;;;;;2.00;1.30;;;20.10;99.90;;;;;;4971608;28;20427;-68
2021/05/10 07:07:08;;;;;;;1.47;1.20;;;20.20;99.90;;;;;;4969296;28;20471;-69
2021/05/10 07:09:36;;;;;;;2.03;1.43;;;20.40;99.90;;;;;;4969877;28;20895;-69
2021/05/10 07:12:04;;;;;;;2.90;1.60;;;20.50;99.90;;;;;;4968981;28;20455;-69
2021/05/10 07:14:32;;;;;;;1.77;1.50;;;20.50;99.90;;;;;;4969366;28;20518;-71
2021/05/10 07:16:59;;;;;;;2.40;1.77;;;20.60;99.90;;;;;;4969863;28;20740;-68
2021/05/10 07:19:27;;;;;;;3.37;2.10;;;20.70;99.90;;;;;;4969786;28;20426;-69
2021/05/10 07:21:55;;;;;;;2.47;1.90;;;20.80;99.90;;;;;;4969183;28;20819;-68
2021/05/10 07:24:23;;;;;;;2.20;1.90;;;20.80;99.90;;;;;;4970177;28;20409;-69
2021/05/10 07:26:50;;;;;;;3.47;1.50;;;20.90;99.90;;;;;;4969510;28;20455;-69
2021/05/10 07:29:17;;;;;;;2.00;1.73;;;21.10;99.90;;;;;;4969886;28;20513;-68
2021/05/10 07:31:45;;;;;;;2.60;2.40;;;21.20;99.90;;;;;;4970193;28;20827;-69
2021/05/10 07:34:13;;;;;;;4.07;1.70;;;21.30;99.90;;;;;;4968547;28;20443;-69
2021/05/10 07:36:42;;;;;;;3.10;2.00;;;21.30;99.90;;;;;;4968397;28;20438;-67
2021/05/10 07:39:10;;;;;;;2.30;1.57;;;21.40;99.90;;;;;;4950973;29;20631;-68
2021/05/10 07:41:40;;;;;;;3.63;1.40;;;21.50;99.90;;;;;;4950365;28;20966;-68
2021/05/10 07:44:08;;;;;;;2.23;1.70;;;21.70;99.90;;;;;;4950051;29;20416;-68
2021/05/10 07:46:35;;;;;;;2.27;1.90;;;21.90;99.90;;;;;;4950487;28;20456;-68
2021/05/10 07:49:03;;;;;;;3.40;1.70;;;22.00;99.90;;;;;;4950289;29;20478;-68
2021/05/10 07:51:30;;;;;;;2.00;1.40;;;22.00;99.90;;;;;;4950258;29;20427;-69
2021/05/10 07:53:57;;;;;;;2.37;2.00;;;22.00;99.90;;;;;;4950067;29;20448;-70
2021/05/10 07:56:24;;;;;;;1.70;1.60;;;21.90;99.90;;;;;;4950480;29;20435;-69
2021/05/10 07:58:55;;;;;;;1.87;1.57;;;21.90;99.90;;;;;;4948085;28;20435;-70
2021/05/10 08:01:22;;;;;;;2.70;1.60;;;21.80;99.90;;;;;;4950092;28;20448;-70
2021/05/10 08:03:49;;;;;;;1.70;1.47;;;22.00;99.90;;;;;;4950166;29;20505;-70
2021/05/10 08:06:18;;;;;;;3.37;2.30;;;22.00;99.90;;;;;;4948617;29;20448;-68
2021/05/10 08:08:45;;;;;;;1.73;1.63;;;22.10;99.90;;;;;;4949008;28;20936;-70
2021/05/10 08:11:12;;;;;;;4.87;2.10;;;22.30;99.90;;;;;;4951117;28;20442;-68
2021/05/10 08:13:40;;;;;;;1.93;1.73;;;22.40;99.90;;;;;;4952138;28;20434;-69
2021/05/10 08:16:08;;;;;;;2.00;1.80;;;22.50;99.90;;;;;;4953004;29;20511;-69
2021/05/10 08:18:41;;;;;;;2.10;1.70;;;22.60;99.90;;;;;;4953807;28;20439;-69
2021/05/10 08:21:09;;;;;;;4.60;2.27;;;22.50;99.90;;;;;;4987307;28;20955;-68
2021/05/10 08:23:37;;;;;;;2.50;1.70;;;22.40;99.90;;;;;;5052690;28;20811;-69
2021/05/10 08:26:05;;;;;;;2.07;1.67;;;22.60;99.90;;;;;;5052596;28;20431;-69
2021/05/10 08:28:33;;;;;;;1.97;1.77;;;22.80;99.90;;;;;;5051437;28;20529;-70
2021/05/10 08:31:00;;;;;;;2.00;1.80;;;23.00;99.90;;;;;;5052839;28;20484;-69
2021/05/10 08:33:30;;;;;;;1.90;1.60;;;23.10;99.90;;;;;;5053928;28;20479;-70
2021/05/10 08:35:57;;;;;;;1.87;1.53;;;23.30;99.90;;;;;;5053914;28;20419;-71
2021/05/10 08:38:25;;;;;;;2.50;1.93;;;23.30;99.90;;;;;;5053814;28;21108;-69
2021/05/10 08:40:53;;;;;;;1.90;1.47;;;23.40;99.90;;;;;;5055432;28;20406;-70
2021/05/10 08:43:21;;;;;;;2.03;1.60;;;23.40;99.90;;;;;;5053975;28;20788;-70
2021/05/10 08:45:54;;;;;;;3.10;1.80;;;23.50;99.90;;;;;;5005465;28;20420;-69
2021/05/10 08:48:22;;;;;;;1.93;1.43;;;23.20;99.90;;;;;;4952004;28;20471;-69
2021/05/10 08:50:52;;;;;;;5.80;1.60;;;23.30;99.90;;;;;;4952721;28;20420;-69
2021/05/10 08:53:32;;;;;;;2.17;1.90;;;23.50;99.90;;;;;;4949379;28;20811;-69
2021/05/10 08:56:00;;;;;;;2.33;2.00;;;23.70;99.90;;;;;;4951461;28;20442;-70
2021/05/10 08:58:27;;;;;;;2.80;2.37;;;23.70;99.90;;;;;;4952780;28;20458;-69
2021/05/10 09:00:59;;;;;;;2.33;2.13;;;23.70;99.90;;;;;;4959388;28;20943;-69
2021/05/10 09:03:34;;;;;;;2.20;2.00;;;23.80;99.90;;;;;;5053207;28;20447;-68
2021/05/10 09:06:02;;;;;;;1.93;1.70;;;23.80;99.90;;;;;;5053259;28;20434;-68
2021/05/10 09:08:37;;;;;;;2.37;1.70;;;23.80;99.90;;;;;;5053200;28;20978;-67
2021/05/10 09:11:05;;;;;;;2.23;1.90;;;23.80;99.90;;;;;;5052868;28;20400;-69
2021/05/10 09:13:40;;;;;;;3.83;2.57;;;23.90;99.90;;;;;;5053098;28;20451;-69
2021/05/10 09:16:10;;;;;;;2.63;2.40;;;24.00;99.90;;;;;;5051587;28;20418;-68
2021/05/10 09:18:38;;;;;;;1.83;1.50;;;24.20;99.90;;;;;;5052007;28;20427;-68
2021/05/10 09:21:12;;;;;;;2.00;1.80;;;24.30;99.90;;;;;;5049846;28;20415;-69
2021/05/10 09:23:59;;;;;;;2.40;2.20;;;24.40;99.90;;;;;;5052591;28;20423;-70
2021/05/10 09:26:30;;;;;;;2.10;1.90;;;24.50;99.90;;;;;;5052290;28;20767;-70
2021/05/10 09:28:58;;;;;;;1.90;1.40;;;24.50;99.90;;;;;;5052508;28;20501;-70
2021/05/10 09:31:26;;;;;;;4.10;2.87;;;24.50;99.90;;;;;;5052128;28;20489;-70
2021/05/10 09:33:54;;;;;;;2.30;1.50;;;24.70;99.90;;;;;;5052437;28;20982;-69
2021/05/10 09:36:36;;;;;;;2.80;2.03;;;24.80;99.90;;;;;;5050194;28;20832;-70
2021/05/10 09:39:06;;;;;;;2.80;2.07;;;24.90;99.90;;;;;;4985391;28;20513;-69
2021/05/10 09:41:58;;;;;;;1.93;1.73;;;25.10;99.90;;;;;;4950406;29;20466;-69
2021/05/10 09:44:39;;;;;;;2.93;2.23;;;25.00;99.90;;;;;;4949972;28;20423;-69
2021/05/10 09:47:07;;;;;;;3.50;2.13;;;25.20;99.90;;;;;;4931869;29;20472;-69
2021/05/10 09:49:44;;;;;;;2.57;1.97;;;25.40;99.90;;;;;;4932255;29;20440;-69
2021/05/10 09:52:20;;;;;;;2.83;1.83;;;25.50;99.90;;;;;;5025651;28;20757;-69
2021/05/10 09:54:54;;;;;;;2.57;2.10;;;25.40;99.90;;;;;;5051963;28;20494;-69
2021/05/10 09:57:21;;;;;;;5.57;2.47;;;25.40;99.90;;;;;;5031357;28;20712;-69
2021/05/10 10:00:15;;;;;;;2.67;2.30;;;25.40;99.90;;;;;;4963713;28;20526;-70
2021/05/10 10:02:42;;;;;;;2.40;2.20;;;25.40;99.90;;;;;;4969999;28;20512;-68
2021/05/10 10:05:12;;;;;;;3.37;1.90;;;25.50;99.90;;;;;;4970193;28;20611;-69
2021/05/10 10:07:41;;;;;;;3.00;2.70;;;25.80;99.90;;;;;;4969474;28;20804;-70
2021/05/10 10:10:10;;;;;;;2.27;2.00;;;25.80;99.90;;;;;;5045694;28;20843;-70
2021/05/10 10:12:37;;;;;;;1.93;1.67;;;25.70;99.90;;;;;;5051336;28;20448;-71
2021/05/10 10:15:06;;;;;;;3.07;2.20;;;25.80;99.90;;;;;;5051465;28;20450;-69
2021/05/10 10:17:33;;;;;;;2.30;1.87;;;25.80;99.90;;;;;;5051620;28;20514;-68
2021/05/10 10:20:04;;;;;;;2.30;1.87;;;25.90;99.90;;;;;;5051303;28;20451;-69
2021/05/10 10:22:32;;;;;;;2.37;1.80;;;26.10;99.90;;;;;;5050599;28;20444;-69
2021/05/10 10:25:03;;;;;;;2.33;1.87;;;26.20;99.90;;;;;;5051210;28;20522;-69
2021/05/10 10:27:51;;;;;;;6.70;1.90;;;26.40;99.90;;;;;;5051179;28;20846;-70
2021/05/10 10:30:23;;;;;;;2.47;2.10;;;26.60;99.90;;;;;;5051475;28;20423;-70
2021/05/10 10:32:51;;;;;;;2.73;2.20;;;26.60;99.90;;;;;;5050646;28;20438;-70
2021/05/10 10:35:35;;;;;;;3.03;2.00;;;26.50;99.90;;;;;;5050519;28;20522;-70
2021/05/10 10:38:04;;;;;;;2.37;2.03;;;26.50;99.90;;;;;;5026440;28;20439;-69
2021/05/10 10:40:32;;;;;;;2.10;1.90;;;26.40;99.90;;;;;;4948629;28;20436;-69
2021/05/10 10:43:22;;;;;;;2.07;1.57;;;26.50;99.90;;;;;;4949832;28;20448;-69
2021/05/10 10:46:21;;;;;;;2.03;1.83;;;26.60;99.90;;;;;;4950095;28;20518;-69
2021/05/10 10:48:49;;;;;;;2.43;2.00;;;26.50;99.90;;;;;;4962725;28;20471;-68
2021/05/10 10:51:17;;;;;;;1.80;1.27;;;26.60;99.90;;;;;;4968610;28;20435;-69
2021/05/10 10:53:45;;;;;;;2.40;2.20;;;26.70;99.90;;;;;;4968752;28;20443;-69
2021/05/10 10:56:14;;;;;;;2.30;1.90;;;26.80;99.90;;;;;;4969039;28;20427;-69
2021/05/10 10:58:43;;;;;;;2.17;1.90;;;27.00;99.90;;;;;;4967778;28;20442;-70
2021/05/10 11:01:13;;;;;;;1.97;1.73;;;27.10;99.90;;;;;;4967449;28;20942;-70
2021/05/10 11:03:41;;;;;;;2.40;2.20;;;27.30;99.90;;;;;;4967129;28;20453;-71
2021/05/10 11:06:09;;;;;;;2.90;2.70;;;27.30;99.90;;;;;;4967486;28;20423;-69
2021/05/10 11:08:47;;;;;;;4.87;3.20;;;27.40;99.90;;;;;;4969075;28;20474;-71
2021/05/10 11:11:41;;;;;;;2.27;2.03;;;27.40;99.90;;;;;;4968746;28;20427;-70
2021/05/10 11:14:14;;;;;;;2.83;2.10;;;27.60;99.90;;;;;;4969187;28;20492;-72
2021/05/10 11:16:49;;;;;;;1.60;1.50;;;27.60;99.90;;;;;;4969024;28;20433;-70
2021/05/10 11:19:36;;;;;;;2.47;1.87;;;27.70;99.90;;;;;;4969195;28;20842;-69
2021/05/10 11:22:36;;;;;;;3.07;2.50;;;27.70;99.90;;;;;;4968282;28;20520;-69
2021/05/10 11:25:39;;;;;;;2.10;1.30;;;27.70;99.90;;;;;;4968990;28;20435;-70
2021/05/10 11:28:41;;;;;;;3.20;2.50;;;27.80;99.90;;;;;;4976484;28;20569;-70
2021/05/10 11:31:10;;;;;;;1.93;1.70;;;27.90;99.90;;;;;;4964939;28;20469;-70
2021/05/10 11:34:08;;;;;;;1.90;1.70;;;28.00;99.90;;;;;;4967133;28;20455;-70
2021/05/10 11:36:37;;;;;;;2.67;1.73;;;28.00;99.90;;;;;;4965937;28;20430;-70
2021/05/10 11:39:07;;;;;;;2.10;1.90;;;27.90;99.90;;;;;;4956463;28;20420;-71
2021/05/10 11:41:36;;;;;;;1.83;1.40;;;28.00;99.90;;;;;;4949533;28;20888;-70
2021/05/10 11:44:06;;;;;;;2.40;2.20;;;28.10;99.90;;;;;;4949656;28;20924;-69
2021/05/10 11:46:35;;;;;;;2.07;1.77;;;28.30;99.90;;;;;;4948487;28;20876;-70
2021/05/10 11:49:03;;;;;;;2.53;1.67;;;28.50;99.90;;;;;;4949745;28;20479;-69
2021/05/10 11:51:35;;;;;;;3.10;1.80;;;28.60;99.90;;;;;;4949426;28;20846;-70
2021/05/10 11:54:05;;;;;;;2.23;2.03;;;28.90;99.90;;;;;;4949683;28;20454;-70
2021/05/10 11:56:36;;;;;;;2.30;1.60;;;29.00;99.90;;;;;;4960085;28;20428;-69
2021/05/10 11:59:22;;;;;;;3.07;2.00;;;29.00;99.90;;;;;;5049002;28;20423;-69
2021/05/10 12:01:49;;;;;;;3.67;1.70;;;28.90;99.90;;;;;;5050194;28;20511;-70
2021/05/10 12:04:23;;;;;;;2.53;1.73;;;28.70;99.90;;;;;;5050102;28;20447;-69
2021/05/10 12:06:51;;;;;;;2.00;1.80;;;28.80;99.90;;;;;;5050386;28;20419;-71
2021/05/10 12:09:32;;;;;;;2.33;1.50;;;29.10;99.90;;;;;;5049219;28;20431;-69
2021/05/10 12:11:59;;;;;;;2.27;1.80;;;29.30;99.90;;;;;;5050033;28;20978;-70
2021/05/10 12:14:28;;;;;;;1.83;1.70;;;29.40;99.90;;;;;;5049389;28;20419;-69
2021/05/10 12:17:03;;;;;;;4.90;2.13;;;29.50;99.90;;;;;;5050822;28;20429;-70
2021/05/10 12:20:04;;;;;;;3.50;3.27;;;29.30;99.90;;;;;;5050275;28;20847;-69
2021/05/10 12:22:35;;;;;;;2.20;2.00;;;29.20;99.90;;;;;;5049783;28;20446;-70
2021/05/10 12:25:06;;;;;;;2.60;1.83;;;29.20;99.90;;;;;;5051304;28;20442;-71
2021/05/10 12:27:38;;;;;;;2.93;2.10;;;29.10;99.90;;;;;;5049755;28;20494;-69
2021/05/10 12:30:12;;;;;;;2.73;1.80;;;29.00;99.90;;;;;;5050203;28;20473;-70
2021/05/10 12:32:40;;;;;;;2.70;2.00;;;28.90;99.90;;;;;;5049129;28;20445;-69
2021/05/10 12:35:09;;;;;;;3.23;1.80;;;28.80;99.90;;;;;;5050580;28;20459;-69
2021/05/10 12:37:44;;;;;;;1.97;1.83;;;28.80;99.90;;;;;;5049484;28;20451;-71
2021/05/10 12:40:13;;;;;;;1.73;1.37;;;28.80;99.90;;;;;;5048711;28;20523;-69
2021/05/10 12:42:41;;;;;;;2.37;2.10;;;28.90;99.90;;;;;;5049314;28;20450;-70
2021/05/10 12:45:12;;;;;;;5.27;2.13;;;28.90;99.90;;;;;;5029780;28;20511;-69
2021/05/10 12:47:41;;;;;;;1.67;1.40;;;29.00;99.90;;;;;;4949120;28;20463;-68
2021/05/10 12:50:10;;;;;;;2.10;1.83;;;28.90;99.90;;;;;;4949203;28;20428;-68
2021/05/10 12:52:48;;;;;;;2.23;2.03;;;29.00;99.90;;;;;;4948544;28;20459;-71
2021/05/10 12:55:17;;;;;;;2.10;1.90;;;29.00;99.90;;;;;;4949587;28;20419;-69
2021/05/10 12:57:44;;;;;;;2.70;2.00;;;28.90;99.90;;;;;;5010748;28;20431;-69
2021/05/10 13:00:29;;;;;;;3.07;2.30;;;29.00;99.90;;;;;;5051062;28;20806;-70
2021/05/10 13:02:56;;;;;;;1.87;1.50;;;29.20;99.90;;;;;;5051662;28;20492;-69
2021/05/10 13:05:34;;;;;;;2.40;2.20;;;29.20;99.90;;;;;;5059349;28;20435;-71
2021/05/10 13:08:02;;;;;;;2.47;1.80;;;29.30;99.90;;;;;;5058292;28;20462;-70